sensor_id;sensor_type;location;lat;lon;timestamp;pressure;altitude;pressure_sealevel;temperature;humidity
43691;BME280;29293;52.190;21.226;2022-11-20T00:04:18;100327.27;;;-7.35;100.00
43691;BME280;29293;52.190;21.226;2022-11-20T00:19:27;100339.64;;;-7.54;100.00
43691;BME280;29293;52.190;21.226;2022-11-20T00:34:34;100333.27;;;-7.62;100.00
43691;BME280;29293;52.190;21.226;2022-11-20T00:49:41;100325.58;;;-7.62;100.00
43691;BME280;29293;52.190;21.226;2022-11-20T01:04:49;100318.95;;;-7.69;100.00
43691;BME280;29293;52.190;21.226;2022-11-20T01:19:56;100311.48;;;-7.75;100.00
43691;BME280;29293;52.190;21.226;2022-11-20T01:35:04;100300.46;;;-7.89;100.00
43691;BME280;29293;52.190;21.226;2022-11-20T01:50:17;100299.55;;;-8.01;100.00
43691;BME280;29293;52.190;21.226;2022-11-20T02:05:30;100292.14;;;-8.14;100.00
43691;BME280;29293;52.190;21.226;2022-11-20T02:20:40;100274.27;;;-8.06;100.00
43691;BME280;29293;52.190;21.226;2022-11-20T02:35:48;100269.71;;;-7.67;100.00
43691;BME280;29293;52.190;21.226;2022-11-20T02:50:57;100265.75;;;-7.49;100.00
43691;BME280;29293;52.190;21.226;2022-11-20T03:06:06;100283.26;;;-7.51;100.00
43691;BME280;29293;52.190;21.226;2022-11-20T03:21:15;100283.96;;;-7.55;100.00
43691;BME280;29293;52.190;21.226;2022-11-20T03:36:23;100276.17;;;-7.54;100.00
43691;BME280;29293;52.190;21.226;2022-11-20T03:51:34;100273.31;;;-7.53;100.00
43691;BME280;29293;52.190;21.226;2022-11-20T04:06:42;100265.30;;;-7.58;100.00
43691;BME280;29293;52.190;21.226;2022-11-20T04:21:50;100258.38;;;-7.61;100.00
43691;BME280;29293;52.190;21.226;2022-11-20T04:36:58;100249.52;;;-7.68;100.00
43691;BME280;29293;52.190;21.226;2022-11-20T04:52:06;100249.91;;;-7.81;100.00
43691;BME280;29293;52.190;21.226;2022-11-20T05:07:14;100233.02;;;-8.02;100.00
43691;BME280;29293;52.190;21.226;2022-11-20T05:22:22;100218.99;;;-8.24;100.00
43691;BME280;29293;52.190;21.226;2022-11-20T05:37:30;100222.96;;;-8.40;100.00
43691;BME280;29293;52.190;21.226;2022-11-20T05:52:37;100212.64;;;-8.58;100.00
43691;BME280;29293;52.190;21.226;2022-11-20T06:07:45;100203.26;;;-8.66;100.00
43691;BME280;29293;52.190;21.226;2022-11-20T06:22:53;100208.48;;;-8.69;100.00
43691;BME280;29293;52.190;21.226;2022-11-20T06:38:01;100199.60;;;-8.75;100.00
43691;BME280;29293;52.190;21.226;2022-11-20T06:53:08;100202.05;;;-8.75;100.00
43691;BME280;29293;52.190;21.226;2022-11-20T07:08:15;100197.75;;;-8.55;100.00
43691;BME280;29293;52.190;21.226;2022-11-20T07:23:23;100192.44;;;-8.23;100.00
43691;BME280;29293;52.190;21.226;2022-11-20T07:38:31;100175.73;;;-7.84;100.00
43691;BME280;29293;52.190;21.226;2022-11-20T07:53:38;100172.69;;;-7.39;100.00
43691;BME280;29293;52.190;21.226;2022-11-20T08:08:46;100165.67;;;-6.85;100.00
43691;BME280;29293;52.190;21.226;2022-11-20T08:23:53;100153.77;;;-6.24;100.00
43691;BME280;29293;52.190;21.226;2022-11-20T08:39:02;100144.70;;;-5.60;100.00
43691;BME280;29293;52.190;21.226;2022-11-20T08:54:10;100134.83;;;-4.94;100.00
43691;BME280;29293;52.190;21.226;2022-11-20T09:09:17;100121.84;;;-4.29;100.00
43691;BME280;29293;52.190;21.226;2022-11-20T09:24:25;100107.55;;;-3.87;100.00
43691;BME280;29293;52.190;21.226;2022-11-20T09:39:32;100084.20;;;-3.46;100.00
43691;BME280;29293;52.190;21.226;2022-11-20T09:54:47;100065.48;;;-3.07;100.00
43691;BME280;29293;52.190;21.226;2022-11-20T10:09:57;100055.63;;;-2.67;100.00
43691;BME280;29293;52.190;21.226;2022-11-20T10:25:08;100054.02;;;-2.29;100.00
43691;BME280;29293;52.190;21.226;2022-11-20T10:40:25;100048.28;;;-1.94;100.00
43691;BME280;29293;52.190;21.226;2022-11-20T10:55:42;100030.02;;;-1.68;100.00
43691;BME280;29293;52.190;21.226;2022-11-20T11:10:54;100018.68;;;-1.43;100.00
43691;BME280;29293;52.190;21.226;2022-11-20T11:26:04;100014.42;;;-1.18;100.00
43691;BME280;29293;52.190;21.226;2022-11-20T11:41:20;100011.41;;;-0.84;100.00
43691;BME280;29293;52.190;21.226;2022-11-20T11:56:34;100004.73;;;-0.61;100.00
43691;BME280;29293;52.190;21.226;2022-11-20T12:11:46;99993.19;;;-0.54;100.00
43691;BME280;29293;52.190;21.226;2022-11-20T12:27:05;99982.05;;;-0.55;100.00
43691;BME280;29293;52.190;21.226;2022-11-20T12:42:38;99966.38;;;-0.59;100.00
43691;BME280;29293;52.190;21.226;2022-11-20T12:58:12;99949.80;;;-0.72;100.00
43691;BME280;29293;52.190;21.226;2022-11-20T13:13:29;99937.71;;;-0.84;100.00
43691;BME280;29293;52.190;21.226;2022-11-20T13:28:38;99925.64;;;-1.06;100.00
43691;BME280;29293;52.190;21.226;2022-11-20T13:43:49;99916.13;;;-1.29;100.00
43691;BME280;29293;52.190;21.226;2022-11-20T13:59:05;99904.89;;;-1.45;100.00
43691;BME280;29293;52.190;21.226;2022-11-20T14:14:18;99897.57;;;-1.52;100.00
43691;BME280;29293;52.190;21.226;2022-11-20T14:29:29;99886.94;;;-1.62;100.00
43691;BME280;29293;52.190;21.226;2022-11-20T14:44:40;99870.42;;;-1.71;100.00
43691;BME280;29293;52.190;21.226;2022-11-20T14:59:49;99873.71;;;-1.85;100.00
43691;BME280;29293;52.190;21.226;2022-11-20T15:14:56;99871.58;;;-2.02;100.00
43691;BME280;29293;52.190;21.226;2022-11-20T15:30:04;99861.63;;;-2.15;100.00
43691;BME280;29293;52.190;21.226;2022-11-20T15:45:16;99853.54;;;-2.26;100.00
43691;BME280;29293;52.190;21.226;2022-11-20T16:00:27;99855.83;;;-2.31;100.00
43691;BME280;29293;52.190;21.226;2022-11-20T16:15:34;99844.06;;;-2.32;100.00
43691;BME280;29293;52.190;21.226;2022-11-20T16:30:55;99848.83;;;-2.27;100.00
43691;BME280;29293;52.190;21.226;2022-11-20T16:46:04;99861.83;;;-2.30;100.00
43691;BME280;29293;52.190;21.226;2022-11-20T17:01:14;99848.00;;;-2.38;100.00
43691;BME280;29293;52.190;21.226;2022-11-20T17:16:22;99847.39;;;-2.55;100.00
43691;BME280;29293;52.190;21.226;2022-11-20T17:31:35;99848.15;;;-2.60;100.00
43691;BME280;29293;52.190;21.226;2022-11-20T17:46:43;99835.27;;;-2.64;100.00
43691;BME280;29293;52.190;21.226;2022-11-20T18:01:51;99809.09;;;-2.85;100.00
43691;BME280;29293;52.190;21.226;2022-11-20T18:17:00;99784.89;;;-3.06;100.00
43691;BME280;29293;52.190;21.226;2022-11-20T18:32:08;99762.57;;;-3.30;100.00
43691;BME280;29293;52.190;21.226;2022-11-20T18:47:17;99751.20;;;-3.55;100.00
43691;BME280;29293;52.190;21.226;2022-11-20T19:02:25;99745.86;;;-3.76;100.00
43691;BME280;29293;52.190;21.226;2022-11-20T19:17:34;99752.82;;;-3.61;100.00
43691;BME280;29293;52.190;21.226;2022-11-20T19:32:41;99737.52;;;-3.55;100.00
43691;BME280;29293;52.190;21.226;2022-11-20T19:47:49;99728.58;;;-3.43;100.00
43691;BME280;29293;52.190;21.226;2022-11-20T20:02:57;99720.55;;;-3.23;100.00
43691;BME280;29293;52.190;21.226;2022-11-20T20:18:04;99711.89;;;-3.10;100.00
43691;BME280;29293;52.190;21.226;2022-11-20T20:33:12;99699.72;;;-3.01;100.00
43691;BME280;29293;52.190;21.226;2022-11-20T20:48:21;99692.61;;;-2.96;100.00
43691;BME280;29293;52.190;21.226;2022-11-20T21:03:30;99692.23;;;-2.92;100.00
43691;BME280;29293;52.190;21.226;2022-11-20T21:18:38;99676.41;;;-2.92;100.00
43691;BME280;29293;52.190;21.226;2022-11-20T21:33:44;99690.58;;;-2.89;100.00
43691;BME280;29293;52.190;21.226;2022-11-20T21:48:54;99680.70;;;-2.87;100.00
43691;BME280;29293;52.190;21.226;2022-11-20T22:04:02;99672.69;;;-2.86;100.00
43691;BME280;29293;52.190;21.226;2022-11-20T22:19:14;99681.73;;;-2.91;100.00
43691;BME280;29293;52.190;21.226;2022-11-20T22:34:21;99684.95;;;-2.97;100.00
43691;BME280;29293;52.190;21.226;2022-11-20T22:49:29;99674.54;;;-3.03;100.00
43691;BME280;29293;52.190;21.226;2022-11-20T23:04:36;99666.85;;;-3.25;100.00
43691;BME280;29293;52.190;21.226;2022-11-20T23:19:42;99675.41;;;-3.46;100.00
43691;BME280;29293;52.190;21.226;2022-11-20T23:34:50;99688.68;;;-3.70;100.00
43691;BME280;29293;52.190;21.226;2022-11-20T23:49:57;99687.41;;;-3.88;100.00
